EDLN/MGL METAR and TAF weather

Enter ICAO airport designator
Station Type Date Time Source
EDLN METAR 2021/03/05 01:20 UTC NOAA

EDLN 050120Z AUTO 33006KT 9999 // SCT014/// BKN021/// OVC048/// 03/00 Q1023


Station Type Date Time Source
EDLN Decoded METAR 2021/03/05 01:20 UTC NOAA

Monchengladbach, Germany (EDLN) 51-13-49N 006-30-16E
Mar 04, 2021 - 08:20 PM EST / 2021.03.05 0120 UTC
Wind: from the NNW (330 degrees) at 7 MPH (6 KT):0
Visibility: greater than 7 mile(s):0
Sky conditions: overcast
Temperature: 37 F (3 C)
Dew Point: 32 F (0 C)
Relative Humidity: 80%
Pressure (altimeter): 30.21 in. Hg (1023 hPa)
ob: EDLN 050120Z AUTO 33006KT 9999 // SCT014/// BKN021/// OVC048/// 03/00 Q1023
cycle: 1

Station Type Date Time Source
EDLN TAF 2010/02/22 14:20 UTC NOAA

METAR EDLN 221420Z 18010G20KT 090V240 9999 SCT030 BKN045 11/06 Q0986
RMK ATIS R=

Example: see airport list